sensor_id;sensor_type;location;lat;lon;timestamp;temperature;humidity
20534;DHT22;12929;56.822;26.056;2023-08-21T00:01:27;19.80;99.90
20534;DHT22;12929;56.822;26.056;2023-08-21T00:03:54;19.90;99.90
20534;DHT22;12929;56.822;26.056;2023-08-21T00:06:22;19.80;99.90
20534;DHT22;12929;56.822;26.056;2023-08-21T00:08:50;19.80;99.90
20534;DHT22;12929;56.822;26.056;2023-08-21T00:11:17;19.80;99.90
20534;DHT22;12929;56.822;26.056;2023-08-21T00:13:45;19.80;99.90
20534;DHT22;12929;56.822;26.056;2023-08-21T00:16:17;19.70;99.90
20534;DHT22;12929;56.822;26.056;2023-08-21T00:18:45;19.80;99.90
20534;DHT22;12929;56.822;26.056;2023-08-21T00:21:12;19.90;99.90
20534;DHT22;12929;56.822;26.056;2023-08-21T00:23:40;19.80;99.90
20534;DHT22;12929;56.822;26.056;2023-08-21T00:26:07;19.80;99.90
20534;DHT22;12929;56.822;26.056;2023-08-21T00:28:35;19.80;99.90
20534;DHT22;12929;56.822;26.056;2023-08-21T00:31:03;19.80;99.90
20534;DHT22;12929;56.822;26.056;2023-08-21T00:33:32;19.70;99.90
20534;DHT22;12929;56.822;26.056;2023-08-21T00:36:03;19.70;99.90
20534;DHT22;12929;56.822;26.056;2023-08-21T00:38:31;19.70;99.90
20534;DHT22;12929;56.822;26.056;2023-08-21T00:40:59;19.70;99.90
20534;DHT22;12929;56.822;26.056;2023-08-21T00:43:27;19.90;99.90
20534;DHT22;12929;56.822;26.056;2023-08-21T00:45:54;19.80;99.90
20534;DHT22;12929;56.822;26.056;2023-08-21T00:48:22;19.70;99.90
20534;DHT22;12929;56.822;26.056;2023-08-21T00:50:50;19.70;99.90
20534;DHT22;12929;56.822;26.056;2023-08-21T00:53:18;19.80;99.90
20534;DHT22;12929;56.822;26.056;2023-08-21T00:55:45;19.70;99.90
20534;DHT22;12929;56.822;26.056;2023-08-21T00:58:15;19.50;99.90
20534;DHT22;12929;56.822;26.056;2023-08-21T01:00:45;19.40;99.90
20534;DHT22;12929;56.822;26.056;2023-08-21T01:03:14;19.50;99.90
20534;DHT22;12929;56.822;26.056;2023-08-21T01:05:42;19.70;99.90
20534;DHT22;12929;56.822;26.056;2023-08-21T01:08:35;19.80;99.90
20534;DHT22;12929;56.822;26.056;2023-08-21T01:11:17;19.80;99.90
20534;DHT22;12929;56.822;26.056;2023-08-21T01:14:09;19.80;99.90
20534;DHT22;12929;56.822;26.056;2023-08-21T01:16:43;19.80;99.90
20534;DHT22;12929;56.822;26.056;2023-08-21T01:19:24;19.70;99.90
20534;DHT22;12929;56.822;26.056;2023-08-21T01:21:53;19.60;99.90
20534;DHT22;12929;56.822;26.056;2023-08-21T01:24:20;19.60;99.90
20534;DHT22;12929;56.822;26.056;2023-08-21T01:26:48;19.60;99.90
20534;DHT22;12929;56.822;26.056;2023-08-21T01:29:16;19.60;99.90
20534;DHT22;12929;56.822;26.056;2023-08-21T01:31:47;19.60;99.90
20534;DHT22;12929;56.822;26.056;2023-08-21T01:34:17;19.60;99.90
20534;DHT22;12929;56.822;26.056;2023-08-21T01:36:45;19.70;99.90
20534;DHT22;12929;56.822;26.056;2023-08-21T01:39:13;19.70;99.90
20534;DHT22;12929;56.822;26.056;2023-08-21T01:41:41;19.60;99.90
20534;DHT22;12929;56.822;26.056;2023-08-21T01:44:09;19.60;99.90
20534;DHT22;12929;56.822;26.056;2023-08-21T01:46:36;19.50;99.90
20534;DHT22;12929;56.822;26.056;2023-08-21T01:49:04;19.50;99.90
20534;DHT22;12929;56.822;26.056;2023-08-21T01:51:31;19.50;99.90
20534;DHT22;12929;56.822;26.056;2023-08-21T01:54:01;19.50;99.90
20534;DHT22;12929;56.822;26.056;2023-08-21T01:56:29;19.50;99.90
20534;DHT22;12929;56.822;26.056;2023-08-21T01:58:57;19.50;99.90
20534;DHT22;12929;56.822;26.056;2023-08-21T02:01:24;19.50;99.90
20534;DHT22;12929;56.822;26.056;2023-08-21T02:03:52;19.60;99.90
20534;DHT22;12929;56.822;26.056;2023-08-21T02:06:20;19.50;99.90
20534;DHT22;12929;56.822;26.056;2023-08-21T02:08:48;19.50;99.90
20534;DHT22;12929;56.822;26.056;2023-08-21T02:11:17;19.50;99.90
20534;DHT22;12929;56.822;26.056;2023-08-21T02:13:44;19.40;99.90
20534;DHT22;12929;56.822;26.056;2023-08-21T02:16:12;19.40;99.90
20534;DHT22;12929;56.822;26.056;2023-08-21T02:18:40;19.40;99.90
20534;DHT22;12929;56.822;26.056;2023-08-21T02:21:08;19.40;99.90
20534;DHT22;12929;56.822;26.056;2023-08-21T02:23:35;19.40;99.90
20534;DHT22;12929;56.822;26.056;2023-08-21T02:26:03;19.40;99.90
20534;DHT22;12929;56.822;26.056;2023-08-21T02:28:31;19.50;99.90
20534;DHT22;12929;56.822;26.056;2023-08-21T02:30:58;19.40;99.90
20534;DHT22;12929;56.822;26.056;2023-08-21T02:33:26;19.40;99.90
20534;DHT22;12929;56.822;26.056;2023-08-21T02:35:55;19.50;99.90
20534;DHT22;12929;56.822;26.056;2023-08-21T02:38:22;19.60;99.90
20534;DHT22;12929;56.822;26.056;2023-08-21T02:40:50;19.60;99.90
20534;DHT22;12929;56.822;26.056;2023-08-21T02:43:17;19.40;99.90
20534;DHT22;12929;56.822;26.056;2023-08-21T02:45:45;19.30;99.90
20534;DHT22;12929;56.822;26.056;2023-08-21T02:48:13;19.30;99.90
20534;DHT22;12929;56.822;26.056;2023-08-21T02:50:40;19.30;99.90
20534;DHT22;12929;56.822;26.056;2023-08-21T02:53:09;19.30;99.90
20534;DHT22;12929;56.822;26.056;2023-08-21T02:55:36;19.40;99.90
20534;DHT22;12929;56.822;26.056;2023-08-21T02:58:04;19.50;99.90
20534;DHT22;12929;56.822;26.056;2023-08-21T03:00:32;19.40;99.90
20534;DHT22;12929;56.822;26.056;2023-08-21T03:02:59;19.40;99.90
20534;DHT22;12929;56.822;26.056;2023-08-21T03:05:27;19.40;99.90
20534;DHT22;12929;56.822;26.056;2023-08-21T03:07:54;19.30;99.90
20534;DHT22;12929;56.822;26.056;2023-08-21T03:10:22;19.20;99.90
20534;DHT22;12929;56.822;26.056;2023-08-21T03:12:50;19.30;99.90
20534;DHT22;12929;56.822;26.056;2023-08-21T03:15:19;19.30;99.90
20534;DHT22;12929;56.822;26.056;2023-08-21T03:17:47;19.40;99.90
20534;DHT22;12929;56.822;26.056;2023-08-21T03:20:14;19.40;99.90
20534;DHT22;12929;56.822;26.056;2023-08-21T03:22:44;19.40;99.90
20534;DHT22;12929;56.822;26.056;2023-08-21T03:25:11;19.40;99.90
20534;DHT22;12929;56.822;26.056;2023-08-21T03:27:39;19.30;99.90
20534;DHT22;12929;56.822;26.056;2023-08-21T03:30:07;19.30;99.90
20534;DHT22;12929;56.822;26.056;2023-08-21T03:32:37;19.30;99.90
20534;DHT22;12929;56.822;26.056;2023-08-21T03:35:05;19.30;99.90
20534;DHT22;12929;56.822;26.056;2023-08-21T03:37:35;19.40;99.90
20534;DHT22;12929;56.822;26.056;2023-08-21T03:40:05;19.30;99.90
20534;DHT22;12929;56.822;26.056;2023-08-21T03:42:33;19.30;99.90
20534;DHT22;12929;56.822;26.056;2023-08-21T03:45:02;19.30;99.90
20534;DHT22;12929;56.822;26.056;2023-08-21T03:47:32;19.30;99.90
20534;DHT22;12929;56.822;26.056;2023-08-21T03:50:06;19.30;99.90
20534;DHT22;12929;56.822;26.056;2023-08-21T03:52:35;19.30;99.90
20534;DHT22;12929;56.822;26.056;2023-08-21T03:55:03;19.30;99.90
20534;DHT22;12929;56.822;26.056;2023-08-21T03:57:31;19.40;99.90
20534;DHT22;12929;56.822;26.056;2023-08-21T03:59:58;19.40;99.90
20534;DHT22;12929;56.822;26.056;2023-08-21T04:02:26;19.40;99.90
20534;DHT22;12929;56.822;26.056;2023-08-21T04:04:53;19.40;99.90
20534;DHT22;12929;56.822;26.056;2023-08-21T04:07:22;19.40;99.90
20534;DHT22;12929;56.822;26.056;2023-08-21T04:09:50;19.40;99.90
20534;DHT22;12929;56.822;26.056;2023-08-21T04:12:17;19.40;99.90
20534;DHT22;12929;56.822;26.056;2023-08-21T04:14:45;19.40;99.90
20534;DHT22;12929;56.822;26.056;2023-08-21T04:17:13;19.60;99.90
20534;DHT22;12929;56.822;26.056;2023-08-21T04:19:40;19.60;99.90
20534;DHT22;12929;56.822;26.056;2023-08-21T04:22:08;19.50;99.90
20534;DHT22;12929;56.822;26.056;2023-08-21T04:24:35;19.40;99.90
20534;DHT22;12929;56.822;26.056;2023-08-21T04:27:03;19.30;99.90
20534;DHT22;12929;56.822;26.056;2023-08-21T04:29:30;19.40;99.90
20534;DHT22;12929;56.822;26.056;2023-08-21T04:31:58;19.40;99.90
20534;DHT22;12929;56.822;26.056;2023-08-21T04:34:26;19.40;99.90
20534;DHT22;12929;56.822;26.056;2023-08-21T04:36:53;19.50;99.90
20534;DHT22;12929;56.822;26.056;2023-08-21T04:39:22;19.50;99.90
20534;DHT22;12929;56.822;26.056;2023-08-21T04:41:49;19.50;99.90
20534;DHT22;12929;56.822;26.056;2023-08-21T04:44:18;19.50;99.90
20534;DHT22;12929;56.822;26.056;2023-08-21T04:46:48;19.50;99.90
20534;DHT22;12929;56.822;26.056;2023-08-21T04:49:17;19.40;99.90
20534;DHT22;12929;56.822;26.056;2023-08-21T04:51:45;19.50;99.90
20534;DHT22;12929;56.822;26.056;2023-08-21T04:54:12;19.50;99.90
20534;DHT22;12929;56.822;26.056;2023-08-21T04:56:40;19.60;99.90
20534;DHT22;12929;56.822;26.056;2023-08-21T04:59:10;19.60;99.90
20534;DHT22;12929;56.822;26.056;2023-08-21T05:01:37;19.70;99.90
20534;DHT22;12929;56.822;26.056;2023-08-21T05:04:06;19.70;99.90
20534;DHT22;12929;56.822;26.056;2023-08-21T05:06:34;19.70;99.90
20534;DHT22;12929;56.822;26.056;2023-08-21T05:09:02;19.70;99.90
20534;DHT22;12929;56.822;26.056;2023-08-21T05:11:29;19.70;99.90
20534;DHT22;12929;56.822;26.056;2023-08-21T05:13:57;19.70;99.90
20534;DHT22;12929;56.822;26.056;2023-08-21T05:16:28;19.50;99.90
20534;DHT22;12929;56.822;26.056;2023-08-21T05:18:56;19.50;99.90
20534;DHT22;12929;56.822;26.056;2023-08-21T05:21:23;19.50;99.90
20534;DHT22;12929;56.822;26.056;2023-08-21T05:23:51;19.60;99.90
20534;DHT22;12929;56.822;26.056;2023-08-21T05:26:19;19.70;99.90
20534;DHT22;12929;56.822;26.056;2023-08-21T05:28:47;19.70;99.90
20534;DHT22;12929;56.822;26.056;2023-08-21T05:31:15;19.80;99.90
20534;DHT22;12929;56.822;26.056;2023-08-21T05:33:54;19.80;99.90
20534;DHT22;12929;56.822;26.056;2023-08-21T05:36:21;19.80;99.90
20534;DHT22;12929;56.822;26.056;2023-08-21T05:38:50;19.80;99.90
20534;DHT22;12929;56.822;26.056;2023-08-21T05:41:18;19.90;99.90
20534;DHT22;12929;56.822;26.056;2023-08-21T05:43:46;19.80;99.90
20534;DHT22;12929;56.822;26.056;2023-08-21T05:46:15;19.80;99.90
20534;DHT22;12929;56.822;26.056;2023-08-21T05:48:43;19.70;99.90
20534;DHT22;12929;56.822;26.056;2023-08-21T05:51:10;19.80;99.90
20534;DHT22;12929;56.822;26.056;2023-08-21T05:53:38;19.70;99.90
20534;DHT22;12929;56.822;26.056;2023-08-21T05:56:05;19.80;99.90
20534;DHT22;12929;56.822;26.056;2023-08-21T05:58:33;19.80;99.90
20534;DHT22;12929;56.822;26.056;2023-08-21T06:01:02;19.90;99.90
20534;DHT22;12929;56.822;26.056;2023-08-21T06:03:33;19.90;99.90
20534;DHT22;12929;56.822;26.056;2023-08-21T06:06:13;19.90;99.90
20534;DHT22;12929;56.822;26.056;2023-08-21T06:08:41;19.90;99.90
20534;DHT22;12929;56.822;26.056;2023-08-21T06:11:09;19.90;99.90
20534;DHT22;12929;56.822;26.056;2023-08-21T06:13:36;19.90;99.90
20534;DHT22;12929;56.822;26.056;2023-08-21T06:16:05;19.90;99.90
20534;DHT22;12929;56.822;26.056;2023-08-21T06:18:35;19.90;99.90
20534;DHT22;12929;56.822;26.056;2023-08-21T06:21:02;19.90;99.90
20534;DHT22;12929;56.822;26.056;2023-08-21T06:23:30;19.90;99.90
20534;DHT22;12929;56.822;26.056;2023-08-21T06:25:58;19.90;99.90
20534;DHT22;12929;56.822;26.056;2023-08-21T06:28:25;19.90;99.90
20534;DHT22;12929;56.822;26.056;2023-08-21T06:30:57;19.90;99.90
20534;DHT22;12929;56.822;26.056;2023-08-21T06:33:25;19.90;99.90
20534;DHT22;12929;56.822;26.056;2023-08-21T06:35:54;19.90;99.90
20534;DHT22;12929;56.822;26.056;2023-08-21T06:38:21;19.90;99.90
20534;DHT22;12929;56.822;26.056;2023-08-21T06:40:49;19.80;99.90
20534;DHT22;12929;56.822;26.056;2023-08-21T06:43:19;19.80;99.90
20534;DHT22;12929;56.822;26.056;2023-08-21T06:45:49;19.80;99.90
20534;DHT22;12929;56.822;26.056;2023-08-21T06:48:16;19.80;99.90
20534;DHT22;12929;56.822;26.056;2023-08-21T06:50:46;19.90;99.90
20534;DHT22;12929;56.822;26.056;2023-08-21T06:53:13;19.90;99.90
20534;DHT22;12929;56.822;26.056;2023-08-21T06:55:41;19.90;99.90
20534;DHT22;12929;56.822;26.056;2023-08-21T06:58:08;19.90;99.90
20534;DHT22;12929;56.822;26.056;2023-08-21T07:00:37;19.90;99.90
20534;DHT22;12929;56.822;26.056;2023-08-21T07:03:05;19.90;99.90
20534;DHT22;12929;56.822;26.056;2023-08-21T07:05:35;20.00;99.90
20534;DHT22;12929;56.822;26.056;2023-08-21T07:08:02;20.10;99.90
20534;DHT22;12929;56.822;26.056;2023-08-21T07:10:35;20.10;99.90
20534;DHT22;12929;56.822;26.056;2023-08-21T07:13:03;20.10;99.90
20534;DHT22;12929;56.822;26.056;2023-08-21T07:15:30;20.10;99.90
20534;DHT22;12929;56.822;26.056;2023-08-21T07:17:58;20.10;99.90
20534;DHT22;12929;56.822;26.056;2023-08-21T07:20:26;20.00;99.90
20534;DHT22;12929;56.822;26.056;2023-08-21T07:22:53;20.10;99.90
20534;DHT22;12929;56.822;26.056;2023-08-21T07:25:21;20.10;99.90
20534;DHT22;12929;56.822;26.056;2023-08-21T07:27:50;20.30;99.90
20534;DHT22;12929;56.822;26.056;2023-08-21T07:30:17;20.20;99.90
20534;DHT22;12929;56.822;26.056;2023-08-21T07:32:45;20.30;99.90
20534;DHT22;12929;56.822;26.056;2023-08-21T07:35:13;20.30;99.90
20534;DHT22;12929;56.822;26.056;2023-08-21T07:37:44;20.30;99.90
20534;DHT22;12929;56.822;26.056;2023-08-21T07:40:12;20.20;99.90
20534;DHT22;12929;56.822;26.056;2023-08-21T07:42:39;20.20;99.90
20534;DHT22;12929;56.822;26.056;2023-08-21T07:45:07;20.20;99.90
20534;DHT22;12929;56.822;26.056;2023-08-21T07:47:35;20.20;99.90
20534;DHT22;12929;56.822;26.056;2023-08-21T07:50:05;20.20;99.90
20534;DHT22;12929;56.822;26.056;2023-08-21T07:52:34;20.40;99.90
20534;DHT22;12929;56.822;26.056;2023-08-21T07:55:03;20.50;99.90
20534;DHT22;12929;56.822;26.056;2023-08-21T07:57:30;20.50;99.90
20534;DHT22;12929;56.822;26.056;2023-08-21T07:59:58;20.40;99.90
20534;DHT22;12929;56.822;26.056;2023-08-21T08:02:25;20.50;99.90
20534;DHT22;12929;56.822;26.056;2023-08-21T08:04:53;20.50;99.90
20534;DHT22;12929;56.822;26.056;2023-08-21T08:07:21;20.50;99.90
20534;DHT22;12929;56.822;26.056;2023-08-21T08:09:49;20.50;99.90
20534;DHT22;12929;56.822;26.056;2023-08-21T08:12:18;20.50;99.90
20534;DHT22;12929;56.822;26.056;2023-08-21T08:14:46;20.60;99.90
20534;DHT22;12929;56.822;26.056;2023-08-21T08:17:13;20.70;99.90
20534;DHT22;12929;56.822;26.056;2023-08-21T08:19:41;20.70;99.90
20534;DHT22;12929;56.822;26.056;2023-08-21T08:22:09;20.80;99.90
20534;DHT22;12929;56.822;26.056;2023-08-21T08:24:36;20.80;99.90
20534;DHT22;12929;56.822;26.056;2023-08-21T08:27:04;20.70;99.90
20534;DHT22;12929;56.822;26.056;2023-08-21T08:29:31;20.70;99.90
20534;DHT22;12929;56.822;26.056;2023-08-21T08:31:59;20.70;99.90
20534;DHT22;12929;56.822;26.056;2023-08-21T08:34:26;20.70;99.90
20534;DHT22;12929;56.822;26.056;2023-08-21T08:36:54;20.60;99.90
20534;DHT22;12929;56.822;26.056;2023-08-21T08:39:21;20.50;99.90
20534;DHT22;12929;56.822;26.056;2023-08-21T08:42:03;20.40;99.90
20534;DHT22;12929;56.822;26.056;2023-08-21T08:44:35;20.30;99.90
20534;DHT22;12929;56.822;26.056;2023-08-21T08:47:05;20.20;99.90
20534;DHT22;12929;56.822;26.056;2023-08-21T08:49:32;20.20;99.90
20534;DHT22;12929;56.822;26.056;2023-08-21T08:52:00;20.30;99.90
20534;DHT22;12929;56.822;26.056;2023-08-21T08:54:29;20.20;99.90
20534;DHT22;12929;56.822;26.056;2023-08-21T08:56:58;20.30;99.90
20534;DHT22;12929;56.822;26.056;2023-08-21T08:59:25;20.40;99.90
20534;DHT22;12929;56.822;26.056;2023-08-21T09:01:53;20.40;99.90
20534;DHT22;12929;56.822;26.056;2023-08-21T09:04:21;20.40;99.90
20534;DHT22;12929;56.822;26.056;2023-08-21T09:06:49;20.50;99.90
20534;DHT22;12929;56.822;26.056;2023-08-21T09:09:16;20.50;99.90
20534;DHT22;12929;56.822;26.056;2023-08-21T09:11:46;20.40;99.90
20534;DHT22;12929;56.822;26.056;2023-08-21T09:14:14;20.50;99.90
20534;DHT22;12929;56.822;26.056;2023-08-21T09:16:59;20.50;99.90
20534;DHT22;12929;56.822;26.056;2023-08-21T09:19:31;20.60;99.90
20534;DHT22;12929;56.822;26.056;2023-08-21T09:22:06;20.60;99.90
20534;DHT22;12929;56.822;26.056;2023-08-21T09:24:34;20.60;99.90
20534;DHT22;12929;56.822;26.056;2023-08-21T09:27:02;20.60;99.90
20534;DHT22;12929;56.822;26.056;2023-08-21T09:29:38;20.50;99.90
20534;DHT22;12929;56.822;26.056;2023-08-21T09:32:08;20.50;99.90
20534;DHT22;12929;56.822;26.056;2023-08-21T09:34:37;20.40;99.90
20534;DHT22;12929;56.822;26.056;2023-08-21T09:37:08;20.30;99.90
20534;DHT22;12929;56.822;26.056;2023-08-21T09:39:37;20.30;99.90
20534;DHT22;12929;56.822;26.056;2023-08-21T09:42:08;20.40;99.90
20534;DHT22;12929;56.822;26.056;2023-08-21T09:44:40;20.50;99.90
20534;DHT22;12929;56.822;26.056;2023-08-21T09:47:12;20.50;99.90
20534;DHT22;12929;56.822;26.056;2023-08-21T09:49:41;20.50;99.90
20534;DHT22;12929;56.822;26.056;2023-08-21T09:52:11;20.40;99.90
20534;DHT22;12929;56.822;26.056;2023-08-21T09:54:39;20.50;99.90
20534;DHT22;12929;56.822;26.056;2023-08-21T09:57:09;20.50;99.90
20534;DHT22;12929;56.822;26.056;2023-08-21T09:59:37;20.50;99.90
20534;DHT22;12929;56.822;26.056;2023-08-21T10:02:09;20.50;99.90
20534;DHT22;12929;56.822;26.056;2023-08-21T10:04:39;20.60;99.90
20534;DHT22;12929;56.822;26.056;2023-08-21T10:07:07;20.60;99.90
20534;DHT22;12929;56.822;26.056;2023-08-21T10:09:36;20.70;99.90
20534;DHT22;12929;56.822;26.056;2023-08-21T10:12:05;20.70;99.90
20534;DHT22;12929;56.822;26.056;2023-08-21T10:14:33;20.80;99.90
20534;DHT22;12929;56.822;26.056;2023-08-21T10:17:01;20.80;99.90
20534;DHT22;12929;56.822;26.056;2023-08-21T10:19:32;20.80;99.90
20534;DHT22;12929;56.822;26.056;2023-08-21T10:22:00;20.70;99.90
20534;DHT22;12929;56.822;26.056;2023-08-21T10:24:35;20.60;99.90
20534;DHT22;12929;56.822;26.056;2023-08-21T10:27:09;20.60;99.90
20534;DHT22;12929;56.822;26.056;2023-08-21T10:29:38;20.70;99.90
20534;DHT22;12929;56.822;26.056;2023-08-21T10:32:06;20.70;99.90
20534;DHT22;12929;56.822;26.056;2023-08-21T10:34:38;20.70;99.90
20534;DHT22;12929;56.822;26.056;2023-08-21T10:37:09;20.60;99.90
20534;DHT22;12929;56.822;26.056;2023-08-21T10:39:55;20.60;99.90
20534;DHT22;12929;56.822;26.056;2023-08-21T10:42:40;20.70;99.90
20534;DHT22;12929;56.822;26.056;2023-08-21T10:45:12;20.80;99.90
20534;DHT22;12929;56.822;26.056;2023-08-21T10:47:40;20.80;99.90
20534;DHT22;12929;56.822;26.056;2023-08-21T10:50:08;20.80;99.90
20534;DHT22;12929;56.822;26.056;2023-08-21T10:52:41;20.80;99.90
20534;DHT22;12929;56.822;26.056;2023-08-21T10:55:16;20.80;99.90
20534;DHT22;12929;56.822;26.056;2023-08-21T10:57:49;20.80;99.90
20534;DHT22;12929;56.822;26.056;2023-08-21T11:00:18;20.80;99.90
20534;DHT22;12929;56.822;26.056;2023-08-21T11:02:49;20.80;99.90
20534;DHT22;12929;56.822;26.056;2023-08-21T11:05:18;20.80;99.90
20534;DHT22;12929;56.822;26.056;2023-08-21T11:07:47;20.90;99.90
20534;DHT22;12929;56.822;26.056;2023-08-21T11:10:22;21.20;99.90
20534;DHT22;12929;56.822;26.056;2023-08-21T11:12:54;21.30;99.90
20534;DHT22;12929;56.822;26.056;2023-08-21T11:15:29;21.40;99.90
20534;DHT22;12929;56.822;26.056;2023-08-21T11:18:01;21.40;99.90
20534;DHT22;12929;56.822;26.056;2023-08-21T11:20:34;21.30;99.90
20534;DHT22;12929;56.822;26.056;2023-08-21T11:23:03;21.20;99.90
20534;DHT22;12929;56.822;26.056;2023-08-21T11:25:38;21.10;99.90
20534;DHT22;12929;56.822;26.056;2023-08-21T11:28:06;21.10;99.90
20534;DHT22;12929;56.822;26.056;2023-08-21T11:30:36;21.20;99.90
20534;DHT22;12929;56.822;26.056;2023-08-21T11:33:07;21.30;99.90
20534;DHT22;12929;56.822;26.056;2023-08-21T11:35:36;21.50;99.90
20534;DHT22;12929;56.822;26.056;2023-08-21T11:38:04;21.60;99.90
20534;DHT22;12929;56.822;26.056;2023-08-21T11:40:35;21.70;99.90
20534;DHT22;12929;56.822;26.056;2023-08-21T11:43:04;21.60;99.90
20534;DHT22;12929;56.822;26.056;2023-08-21T11:45:33;21.80;99.90
20534;DHT22;12929;56.822;26.056;2023-08-21T11:48:15;22.20;99.90
20534;DHT22;12929;56.822;26.056;2023-08-21T11:50:48;22.20;99.90
20534;DHT22;12929;56.822;26.056;2023-08-21T11:53:15;22.10;99.90
20534;DHT22;12929;56.822;26.056;2023-08-21T11:55:42;21.90;99.90
20534;DHT22;12929;56.822;26.056;2023-08-21T11:58:10;21.90;99.90
20534;DHT22;12929;56.822;26.056;2023-08-21T12:00:40;21.70;99.90
20534;DHT22;12929;56.822;26.056;2023-08-21T12:03:07;21.80;99.90
20534;DHT22;12929;56.822;26.056;2023-08-21T12:05:42;21.80;99.90
20534;DHT22;12929;56.822;26.056;2023-08-21T12:08:11;21.90;99.90
20534;DHT22;12929;56.822;26.056;2023-08-21T12:10:40;22.20;99.90
20534;DHT22;12929;56.822;26.056;2023-08-21T12:13:08;22.40;99.90
20534;DHT22;12929;56.822;26.056;2023-08-21T12:15:36;22.60;99.90
20534;DHT22;12929;56.822;26.056;2023-08-21T12:18:03;22.60;99.90
20534;DHT22;12929;56.822;26.056;2023-08-21T12:20:31;22.70;99.90
20534;DHT22;12929;56.822;26.056;2023-08-21T12:22:59;22.80;99.90
20534;DHT22;12929;56.822;26.056;2023-08-21T12:25:27;23.00;99.90
20534;DHT22;12929;56.822;26.056;2023-08-21T12:27:55;23.00;99.90
20534;DHT22;12929;56.822;26.056;2023-08-21T12:30:35;23.10;99.90
20534;DHT22;12929;56.822;26.056;2023-08-21T12:33:03;23.10;99.90
20534;DHT22;12929;56.822;26.056;2023-08-21T12:35:48;23.00;99.90
20534;DHT22;12929;56.822;26.056;2023-08-21T12:38:15;23.20;99.90
20534;DHT22;12929;56.822;26.056;2023-08-21T12:40:43;23.50;99.90
20534;DHT22;12929;56.822;26.056;2023-08-21T12:43:11;23.60;99.90
20534;DHT22;12929;56.822;26.056;2023-08-21T12:45:39;23.60;99.90
20534;DHT22;12929;56.822;26.056;2023-08-21T12:48:06;23.70;99.90
20534;DHT22;12929;56.822;26.056;2023-08-21T12:50:34;23.90;99.90
20534;DHT22;12929;56.822;26.056;2023-08-21T12:53:02;23.80;99.90
20534;DHT22;12929;56.822;26.056;2023-08-21T12:55:29;23.70;99.90
20534;DHT22;12929;56.822;26.056;2023-08-21T12:57:57;23.70;99.90
20534;DHT22;12929;56.822;26.056;2023-08-21T13:00:26;23.70;99.90
20534;DHT22;12929;56.822;26.056;2023-08-21T13:02:54;23.50;99.90
20534;DHT22;12929;56.822;26.056;2023-08-21T13:05:26;23.50;99.90
20534;DHT22;12929;56.822;26.056;2023-08-21T13:07:54;23.30;99.90
20534;DHT22;12929;56.822;26.056;2023-08-21T13:10:22;23.40;99.90
20534;DHT22;12929;56.822;26.056;2023-08-21T13:12:50;23.70;99.90
20534;DHT22;12929;56.822;26.056;2023-08-21T13:15:19;23.50;99.90
20534;DHT22;12929;56.822;26.056;2023-08-21T13:17:46;23.40;99.90
20534;DHT22;12929;56.822;26.056;2023-08-21T13:20:14;23.00;99.90
20534;DHT22;12929;56.822;26.056;2023-08-21T13:22:46;22.90;99.90
20534;DHT22;12929;56.822;26.056;2023-08-21T13:25:15;22.70;99.90
20534;DHT22;12929;56.822;26.056;2023-08-21T13:27:43;22.80;99.90
20534;DHT22;12929;56.822;26.056;2023-08-21T13:30:11;22.90;99.90
20534;DHT22;12929;56.822;26.056;2023-08-21T13:32:39;23.20;99.90
20534;DHT22;12929;56.822;26.056;2023-08-21T13:35:07;23.40;99.90
20534;DHT22;12929;56.822;26.056;2023-08-21T13:37:39;23.40;99.90
20534;DHT22;12929;56.822;26.056;2023-08-21T13:40:07;23.10;99.90
20534;DHT22;12929;56.822;26.056;2023-08-21T13:42:41;22.90;99.90
20534;DHT22;12929;56.822;26.056;2023-08-21T13:45:10;22.90;99.90
20534;DHT22;12929;56.822;26.056;2023-08-21T13:47:42;22.80;99.90
20534;DHT22;12929;56.822;26.056;2023-08-21T13:50:10;22.90;99.90
20534;DHT22;12929;56.822;26.056;2023-08-21T13:52:38;23.30;99.90
20534;DHT22;12929;56.822;26.056;2023-08-21T13:55:08;23.20;99.90
20534;DHT22;12929;56.822;26.056;2023-08-21T13:57:36;23.10;99.90
20534;DHT22;12929;56.822;26.056;2023-08-21T14:00:07;22.80;99.90
20534;DHT22;12929;56.822;26.056;2023-08-21T14:02:35;23.10;99.90
20534;DHT22;12929;56.822;26.056;2023-08-21T14:05:03;23.00;99.90
20534;DHT22;12929;56.822;26.056;2023-08-21T14:07:35;22.90;99.90
20534;DHT22;12929;56.822;26.056;2023-08-21T14:10:04;22.90;99.90
20534;DHT22;12929;56.822;26.056;2023-08-21T14:12:34;23.00;99.90
20534;DHT22;12929;56.822;26.056;2023-08-21T14:15:06;22.90;99.90
20534;DHT22;12929;56.822;26.056;2023-08-21T14:17:33;22.80;99.90
20534;DHT22;12929;56.822;26.056;2023-08-21T14:20:02;22.80;99.90
20534;DHT22;12929;56.822;26.056;2023-08-21T14:22:30;23.10;99.90
20534;DHT22;12929;56.822;26.056;2023-08-21T14:24:59;23.10;99.90
20534;DHT22;12929;56.822;26.056;2023-08-21T14:27:26;23.40;99.90
20534;DHT22;12929;56.822;26.056;2023-08-21T14:29:54;23.50;99.90
20534;DHT22;12929;56.822;26.056;2023-08-21T14:32:21;23.40;99.90
20534;DHT22;12929;56.822;26.056;2023-08-21T14:34:49;23.50;99.90
20534;DHT22;12929;56.822;26.056;2023-08-21T14:37:16;23.80;99.90
20534;DHT22;12929;56.822;26.056;2023-08-21T14:39:44;23.70;99.90
20534;DHT22;12929;56.822;26.056;2023-08-21T14:42:12;23.70;99.90
20534;DHT22;12929;56.822;26.056;2023-08-21T14:44:39;23.70;99.90
20534;DHT22;12929;56.822;26.056;2023-08-21T14:47:07;23.80;99.90
20534;DHT22;12929;56.822;26.056;2023-08-21T14:49:36;23.50;99.90
20534;DHT22;12929;56.822;26.056;2023-08-21T14:52:04;23.50;99.90
20534;DHT22;12929;56.822;26.056;2023-08-21T14:54:34;23.80;99.90
20534;DHT22;12929;56.822;26.056;2023-08-21T14:57:02;23.80;99.90
20534;DHT22;12929;56.822;26.056;2023-08-21T14:59:30;23.60;99.90
20534;DHT22;12929;56.822;26.056;2023-08-21T15:01:58;23.40;99.90
20534;DHT22;12929;56.822;26.056;2023-08-21T15:04:26;23.50;99.90
20534;DHT22;12929;56.822;26.056;2023-08-21T15:06:53;23.80;99.90
20534;DHT22;12929;56.822;26.056;2023-08-21T15:09:21;23.90;99.90
20534;DHT22;12929;56.822;26.056;2023-08-21T15:11:48;23.70;99.90
20534;DHT22;12929;56.822;26.056;2023-08-21T15:14:16;23.50;99.90
20534;DHT22;12929;56.822;26.056;2023-08-21T15:16:44;23.50;99.90
20534;DHT22;12929;56.822;26.056;2023-08-21T15:19:11;23.30;99.90
20534;DHT22;12929;56.822;26.056;2023-08-21T15:21:39;23.20;99.90
20534;DHT22;12929;56.822;26.056;2023-08-21T15:24:08;23.10;99.90
20534;DHT22;12929;56.822;26.056;2023-08-21T15:26:36;23.40;99.90